Terminal Aerodrome Forecast
Issued by NWS Albany, NY

Home | Current Version | Previous Version | Text Only | Print | Product List | Glossary On
Versions: 1 2 3 4 5 6 7 8 9 10 11 12 13 14 15 16 17 18 19 20
000
FTUS41 KALY 311700 RRA
TAFALB
TAF
KALB 311744Z 3118/0118 32015G22KT P6SM SKC
     FM312300 30009KT P6SM SKC
     FM010400 28005KT P6SM SCT060
     FM010800 22004KT P6SM SCT035 OVC060
     FM011300 29007KT P6SM BKN035=

USA.gov is the U.S. government's official web portal to all federal, state and local government web resources and services.